Search flights

Jaipur Airport, Jaipur (VIJP)

Airport Weather & NOTAM's

METAR for:VIJP (Jaipur Intl, RJ, IN)
Text:VIJP 251200Z VRB02KT 2500 HZ SCT030 BKN100 29/25 Q0998 BECMG 3000 HZ
Conditions at:1200 UTC 25 Jun 2024
Temperature: 29.0°C ( 84°F)
Dewpoint: 25.0°C ( 77°F) [RH = 79%]
Pressure (altimeter):29.47 inches Hg ( 998.0 mb)
Winds:variable direction winds at 2 MPH (2 knots; 1.0 m/s)
Visibility:1.55 sm (2.49 km)
Ceiling:10000 feet AGL
Clouds:scattered clouds at 3000 feet AGL, broken clouds at 10000 feet AGL
Weather:HZ (haze)

Live Departures & Arrivals

There are currently no arrivals or departures for this airport.

Departures History (last 12 months)

Flight No. Dest. Aircraft Date
AIC612 VABB Airbus A32... 2023-11-14 13:37:26

Arrivals History (last 12 months)

No arrival history to display.

Runway Information (Airport elevation: 1,258ft)

Runway 09 Length 11,179ft Width 141ft Elevation 1,258ft Surface Asphalt Heading 84
Runway 27 Length 11,179ft Width 141ft Elevation 1,258ft Surface Asphalt Heading 264

Airport Frequencies

Type CTR Frequency 125.975 Mhz
Type CTR Frequency 127.575 Mhz
Type APP/DEP Frequency 119.750 Mhz
Type APP/DEP Frequency 120.225 Mhz
Type APP/DEP Frequency 125.250 Mhz
Type ATIS Frequency 126.600 Mhz
Type Ground Frequency 121.625 Mhz
Type Tower Frequency 119.750 Mhz
Type Tower Frequency 124.300 Mhz

Airport Navaids

Type VOR-DME Ident JJP Frequency 112900 Khz